Terminal Aerodrome Forecast
Issued by NWS Medford, OR

Home | Current Version | Previous Version | Text Only | Print | Product List | Glossary On
Versions: 1 2 3 4 5 6 7 8 9 10 11 12 13
000
FTUS46 KMFR 300754 AAB
TAFMFR
TAF AMD
KMFR 300754Z 3008/0106 32003KT P6SM OVC050
     FM301200 32002KT P6SM BKN030
     FM301700 32006KT P6SM SCT040
     FM010000 34008KT P6SM SKC=

USA.gov is the U.S. government's official web portal to all federal, state and local government web resources and services.